Aeroporto :
LOGIN :

Iscrizione | Disclaimer

   EN    FR    IT 

 










Sommario :    VFR   VFR Marginale   IFR   IFR Intensivo   IFR Molto Intensivo
Visibilità : 
Base nubi : 
>= 8 km
>= 3000ft
5 / 8 km
1000 / 3000 ft
1500m / 5 km
500 / 1000 ft
800 / 1500m
200 / 500 ft
< 800m
< 200 ft
Simboli :   Temporali  Nebbia  Neve Forte  Precipitazioni Forti  Vento > 20 kt
SIGMETs :   Varie  Temporali  Ghiacco  Turbolenza  Onda orograficha  Ceneri Vulcaniche






- Altitudine del aeroporto : 919 ft
- Codice IATA : IFO


UKLI - Ivano Frankivs'k

ULTIMO METAR :
  • 281300Z 34003MPS 280V030 9999 TS BKN027CB BKN036 17/10 Q1017 NOSIG

METARs OBSOLETI :
  • 281200Z 34005MPS 310V040 9999 FEW023CB BKN033 18/08 Q1017 NOSIG
  • 281100Z 36002MPS 290V050 9999 SCT023CB BKN033 17/09 Q1018 NOSIG

TAF TAF UKLI
Valido dal 28 a 12 ore il 28 a 21 ore UTC


281101Z 2812/2821 34005MPS 9999 BKN020
TEMPO 2812/2818 36010G15MPS 1200 TSRAGR BKN007 BKN015CB



MetMap, La meteo Aeronautica in un colpo d'occhio ! - Copyright ORBIFLY Dicembre 2007 - Disclaimer

ORBIFLY MET'MAP TEAM :

Programmazione e sviluppo : Alexandra Zaïnal
Concezione : Baudouin d'Aumeries
Aiuto per la programmazione : Marc-Olivier Méhu
Supporto tecnico e logistico : Manuel Goepfert
Aiuto per la traduzione : Arnaldo La Scala

Contatto : metmap@orbifly.com




FONTI E CREDITI :

   NOAA